Time;durP1;ratioP1;P1;durP2;ratioP2;P2;SDS_P1;SDS_P2;PMS_P1;PMS_P2;Temp;Humidity;BMP_temperature;BMP_pressure;BME280_temperature;BME280_humidity;BME280_pressure;Samples;Min_cycle;Max_cycle;Signal;HPM_P1;HPM_P2
2023/08/25 00:00:59;;;;;;;12.98;9.20;;;19.10;99.90;;;;;;5119216;27;20039;-63
2023/08/25 00:03:25;;;;;;;11.10;9.18;;;19.10;99.90;;;;;;5117325;27;20051;-63
2023/08/25 00:05:55;;;;;;;11.30;9.95;;;19.10;99.90;;;;;;5137319;27;20066;-63
2023/08/25 00:08:21;;;;;;;10.82;9.80;;;19.00;99.90;;;;;;5127477;27;20047;-64
2023/08/25 00:10:47;;;;;;;11.07;9.75;;;19.00;99.90;;;;;;5118907;27;20051;-63
2023/08/25 00:13:14;;;;;;;11.30;9.60;;;19.00;99.90;;;;;;5117838;27;20058;-63
2023/08/25 00:15:41;;;;;;;10.18;9.18;;;19.00;99.90;;;;;;5117779;27;20043;-63
2023/08/25 00:18:07;;;;;;;9.98;8.98;;;19.00;99.90;;;;;;5117771;27;20152;-64
2023/08/25 00:20:32;;;;;;;11.00;9.15;;;19.00;99.90;;;;;;5143306;27;20114;-64
2023/08/25 00:22:58;;;;;;;12.52;9.35;;;19.00;99.90;;;;;;5136103;27;20454;-63
2023/08/25 00:25:24;;;;;;;12.45;9.63;;;19.00;99.90;;;;;;5116764;27;20041;-63
2023/08/25 00:27:49;;;;;;;11.13;10.10;;;19.00;99.90;;;;;;5117392;27;20135;-64
2023/08/25 00:30:15;;;;;;;10.35;9.27;;;19.00;99.90;;;;;;5134563;27;20770;-64
2023/08/25 00:32:41;;;;;;;12.63;11.30;;;19.00;99.90;;;;;;5137256;27;20527;-65
2023/08/25 00:35:07;;;;;;;14.88;11.00;;;19.00;99.90;;;;;;5142638;27;20118;-63
2023/08/25 00:37:33;;;;;;;14.98;12.45;;;19.00;99.90;;;;;;5116549;27;20067;-63
2023/08/25 00:39:58;;;;;;;12.48;10.82;;;19.00;99.90;;;;;;5142284;27;20070;-63
2023/08/25 00:42:24;;;;;;;12.98;11.05;;;19.00;99.90;;;;;;5131120;27;20126;-63
2023/08/25 00:44:50;;;;;;;12.52;11.32;;;19.10;99.90;;;;;;5117202;27;20046;-63
2023/08/25 00:47:16;;;;;;;12.60;11.43;;;19.10;99.90;;;;;;5116435;27;20073;-64
2023/08/25 00:49:42;;;;;;;12.75;11.55;;;19.10;99.90;;;;;;5117919;27;20442;-64
2023/08/25 00:52:08;;;;;;;13.05;11.82;;;19.10;99.90;;;;;;5115312;27;20051;-63
2023/08/25 00:54:36;;;;;;;14.55;12.00;;;19.10;99.90;;;;;;5114252;28;20038;-63
2023/08/25 00:57:03;;;;;;;14.20;12.70;;;19.10;99.90;;;;;;5125350;27;20037;-64
2023/08/25 00:59:29;;;;;;;13.88;12.43;;;19.20;99.90;;;;;;5121580;27;20039;-63
2023/08/25 01:01:56;;;;;;;12.77;11.57;;;19.10;99.90;;;;;;5120716;27;20074;-65
2023/08/25 01:04:22;;;;;;;17.02;12.95;;;19.10;99.90;;;;;;5125210;27;20513;-65
2023/08/25 01:06:48;;;;;;;15.48;13.13;;;19.10;99.90;;;;;;5115037;27;20043;-64
2023/08/25 01:09:14;;;;;;;15.57;13.65;;;19.20;99.90;;;;;;5103556;28;20122;-64
2023/08/25 01:12:01;;;;;;;15.73;14.02;;;19.20;99.90;;;;;;5119524;27;20047;-63
2023/08/25 01:14:36;;;;;;;14.70;13.30;;;19.20;99.90;;;;;;5122391;27;20047;-64
2023/08/25 01:17:19;;;;;;;17.10;13.98;;;19.10;99.90;;;;;;5133133;27;20117;-64
2023/08/25 01:19:53;;;;;;;16.40;14.82;;;19.20;99.90;;;;;;5109343;27;20047;-63
2023/08/25 01:22:43;;;;;;;15.70;14.20;;;19.20;99.90;;;;;;5118618;27;20050;-64
2023/08/25 01:25:25;;;;;;;16.42;14.70;;;19.20;99.90;;;;;;5131167;27;20049;-63
2023/08/25 01:27:51;;;;;;;20.55;16.80;;;19.20;99.90;;;;;;5101691;27;20055;-63
2023/08/25 01:30:17;;;;;;;17.95;16.25;;;19.20;99.90;;;;;;5132134;27;20049;-64
2023/08/25 01:32:43;;;;;;;21.25;19.08;;;19.20;99.90;;;;;;5126964;27;20041;-63
2023/08/25 01:35:14;;;;;;;20.05;17.88;;;19.10;99.90;;;;;;5113082;27;20032;-65
2023/08/25 01:37:48;;;;;;;20.83;18.70;;;19.10;99.90;;;;;;5127080;27;20056;-63
2023/08/25 01:40:21;;;;;;;23.90;20.95;;;19.10;99.90;;;;;;5098061;27;20031;-64
2023/08/25 01:42:49;;;;;;;22.70;20.45;;;19.10;99.90;;;;;;5116426;27;20043;-64
2023/08/25 01:45:17;;;;;;;21.60;19.50;;;19.10;99.90;;;;;;5122254;27;20122;-64
2023/08/25 01:47:46;;;;;;;22.65;20.38;;;19.10;99.90;;;;;;5124961;27;20035;-64
2023/08/25 01:50:13;;;;;;;23.15;18.95;;;19.10;99.90;;;;;;5124944;27;20093;-64
2023/08/25 01:52:40;;;;;;;24.20;21.70;;;19.10;99.90;;;;;;5130691;27;20096;-65
2023/08/25 01:55:07;;;;;;;23.45;21.13;;;19.10;99.90;;;;;;5127767;27;20038;-65
2023/08/25 01:57:33;;;;;;;26.02;20.67;;;19.10;99.90;;;;;;5153892;27;20070;-64
2023/08/25 01:59:58;;;;;;;22.65;20.40;;;19.00;99.90;;;;;;5145672;27;20116;-64
2023/08/25 02:02:24;;;;;;;24.80;22.17;;;19.00;99.90;;;;;;5104681;27;20481;-64
2023/08/25 02:04:50;;;;;;;24.20;21.70;;;19.10;99.90;;;;;;5126428;27;20050;-64
2023/08/25 02:07:15;;;;;;;22.98;20.58;;;19.00;99.90;;;;;;5135904;27;20030;-64
2023/08/25 02:09:41;;;;;;;25.27;22.63;;;19.00;99.90;;;;;;5151426;27;20042;-63
2023/08/25 02:12:07;;;;;;;26.85;24.15;;;19.00;99.90;;;;;;5117371;27;20110;-64
2023/08/25 02:14:32;;;;;;;26.40;23.80;;;18.90;99.90;;;;;;5116664;27;20501;-64
2023/08/25 02:16:58;;;;;;;28.42;25.38;;;18.90;99.90;;;;;;5123261;27;20027;-63
2023/08/25 02:19:23;;;;;;;28.80;25.80;;;18.90;99.90;;;;;;5109204;27;20053;-65
2023/08/25 02:21:49;;;;;;;27.73;24.80;;;18.90;99.90;;;;;;5134976;27;20048;-63
2023/08/25 02:24:15;;;;;;;29.33;26.23;;;18.90;99.90;;;;;;5145735;27;20032;-63
2023/08/25 02:26:40;;;;;;;28.90;25.63;;;18.90;99.90;;;;;;5134609;27;20131;-65
2023/08/25 02:29:06;;;;;;;27.73;24.90;;;18.90;99.90;;;;;;5115205;27;20042;-62
2023/08/25 02:31:31;;;;;;;31.95;26.33;;;18.90;99.90;;;;;;5103434;27;20039;-63
2023/08/25 02:33:57;;;;;;;26.98;24.27;;;18.90;99.90;;;;;;5115654;27;20039;-64
2023/08/25 02:36:23;;;;;;;29.13;25.83;;;18.80;99.90;;;;;;5123052;27;20085;-64
2023/08/25 02:38:48;;;;;;;27.80;24.45;;;18.80;99.90;;;;;;5124664;27;20042;-64
2023/08/25 02:41:14;;;;;;;30.63;26.42;;;18.80;99.90;;;;;;5151970;27;20139;-63
2023/08/25 02:43:40;;;;;;;23.90;21.50;;;18.70;99.90;;;;;;5151520;27;20658;-63
2023/08/25 02:46:05;;;;;;;25.70;23.10;;;18.70;99.90;;;;;;5124919;27;20026;-63
2023/08/25 02:48:31;;;;;;;24.20;21.73;;;18.70;99.90;;;;;;5122719;27;20046;-63
2023/08/25 02:50:57;;;;;;;24.20;21.73;;;18.70;99.90;;;;;;5114432;27;20043;-64
2023/08/25 02:53:22;;;;;;;23.83;21.48;;;18.70;99.90;;;;;;5116570;27;20051;-64
2023/08/25 02:55:48;;;;;;;25.25;22.65;;;18.60;99.90;;;;;;5131093;27;20070;-63
2023/08/25 02:58:13;;;;;;;24.27;21.77;;;18.60;99.90;;;;;;5132467;27;20484;-64
2023/08/25 03:00:39;;;;;;;24.67;21.90;;;18.60;99.90;;;;;;5120963;27;20057;-64
2023/08/25 03:03:05;;;;;;;25.25;22.63;;;18.50;99.90;;;;;;5118356;27;20039;-64
2023/08/25 03:05:30;;;;;;;23.90;21.38;;;18.50;99.90;;;;;;5114057;27;20494;-63
2023/08/25 03:07:56;;;;;;;23.50;21.10;;;18.50;99.90;;;;;;5123743;27;20127;-64
2023/08/25 03:10:22;;;;;;;25.75;23.15;;;18.40;99.90;;;;;;5152770;27;20047;-63
2023/08/25 03:12:47;;;;;;;25.98;23.33;;;18.40;99.90;;;;;;5111190;27;20039;-65
2023/08/25 03:15:13;;;;;;;23.95;21.52;;;18.40;99.90;;;;;;5134822;27;20355;-63
2023/08/25 03:17:41;;;;;;;28.08;24.75;;;18.40;99.90;;;;;;5115174;27;20402;-63
2023/08/25 03:20:07;;;;;;;25.30;22.73;;;18.40;99.90;;;;;;5115481;27;20042;-63
2023/08/25 03:22:33;;;;;;;25.80;22.80;;;18.40;99.90;;;;;;5114074;27;20378;-64
2023/08/25 03:24:59;;;;;;;24.25;21.75;;;18.40;99.90;;;;;;5113486;27;20050;-65
2023/08/25 03:27:24;;;;;;;28.50;24.30;;;18.30;99.90;;;;;;5113181;27;20057;-64
2023/08/25 03:29:50;;;;;;;24.15;21.70;;;18.30;99.90;;;;;;5119541;27;20151;-64
2023/08/25 03:32:16;;;;;;;23.95;21.33;;;18.30;99.90;;;;;;5115568;27;20508;-64
2023/08/25 03:34:42;;;;;;;24.42;21.92;;;18.30;99.90;;;;;;5125463;27;20398;-63
2023/08/25 03:37:07;;;;;;;24.55;21.25;;;18.20;99.90;;;;;;5112917;27;20761;-64
2023/08/25 03:39:34;;;;;;;22.63;20.30;;;18.20;99.90;;;;;;5114129;27;20114;-64
2023/08/25 03:41:59;;;;;;;22.88;20.63;;;18.20;99.90;;;;;;5113093;27;20043;-64
2023/08/25 03:44:25;;;;;;;24.63;22.02;;;18.10;99.90;;;;;;5131518;27;20508;-64
2023/08/25 03:46:51;;;;;;;24.73;22.23;;;18.10;99.90;;;;;;5140032;27;20058;-64
2023/08/25 03:49:16;;;;;;;24.23;20.80;;;18.10;99.90;;;;;;5131251;27;20035;-64
2023/08/25 03:51:42;;;;;;;23.77;21.42;;;18.00;99.90;;;;;;5114056;27;20130;-64
2023/08/25 03:54:08;;;;;;;22.63;20.33;;;18.00;99.90;;;;;;5122085;27;20047;-64
2023/08/25 03:56:33;;;;;;;24.27;21.73;;;18.00;99.90;;;;;;5131874;27;20038;-63
2023/08/25 03:58:59;;;;;;;25.10;22.50;;;18.00;99.90;;;;;;5122243;27;20039;-63
2023/08/25 04:01:24;;;;;;;24.30;21.92;;;18.00;99.90;;;;;;5138785;27;20042;-64
2023/08/25 04:03:50;;;;;;;25.45;22.30;;;18.00;99.90;;;;;;5122036;27;20039;-64
2023/08/25 04:06:16;;;;;;;25.55;22.80;;;18.00;99.90;;;;;;5131942;27;20054;-63
2023/08/25 04:08:41;;;;;;;26.95;24.08;;;18.00;99.90;;;;;;5132198;27;20130;-63
2023/08/25 04:11:07;;;;;;;25.05;22.55;;;18.00;99.90;;;;;;5119917;27;20030;-64
2023/08/25 04:13:32;;;;;;;26.13;23.52;;;18.10;99.90;;;;;;5132960;27;20072;-64
2023/08/25 04:15:59;;;;;;;24.58;21.98;;;18.10;99.90;;;;;;5149208;27;20479;-64
2023/08/25 04:18:25;;;;;;;29.77;26.08;;;18.00;99.90;;;;;;5112960;27;20031;-63
2023/08/25 04:20:51;;;;;;;33.20;28.88;;;18.00;99.90;;;;;;5118792;27;20035;-63
2023/08/25 04:23:17;;;;;;;32.50;27.00;;;18.10;99.90;;;;;;5114669;27;20042;-65
2023/08/25 04:25:43;;;;;;;25.58;22.88;;;18.10;99.90;;;;;;5133506;27;20397;-63
2023/08/25 04:28:10;;;;;;;25.52;22.92;;;18.00;99.90;;;;;;5114827;28;20046;-64
2023/08/25 04:30:35;;;;;;;26.23;23.42;;;18.00;99.90;;;;;;5095340;27;20051;-65
2023/08/25 04:33:01;;;;;;;29.58;24.83;;;18.00;99.90;;;;;;5120901;27;20041;-64
2023/08/25 04:35:27;;;;;;;32.08;27.90;;;17.90;99.90;;;;;;5112303;27;20498;-63
2023/08/25 04:37:52;;;;;;;31.08;27.17;;;18.00;99.90;;;;;;5095508;27;20057;-63
2023/08/25 04:40:18;;;;;;;35.95;30.27;;;18.00;99.90;;;;;;5112476;27;20035;-65
2023/08/25 04:42:44;;;;;;;37.58;28.88;;;18.00;99.90;;;;;;5117820;27;20477;-65
2023/08/25 04:45:11;;;;;;;28.73;25.48;;;17.90;99.90;;;;;;5111754;28;20042;-64
2023/08/25 04:47:37;;;;;;;31.10;27.08;;;17.90;99.90;;;;;;5130395;27;20047;-65
2023/08/25 04:50:03;;;;;;;29.88;26.00;;;17.90;99.90;;;;;;5131596;27;20039;-64
2023/08/25 04:52:30;;;;;;;26.00;23.30;;;17.90;99.90;;;;;;5115445;27;20448;-63
2023/08/25 04:54:56;;;;;;;31.10;26.58;;;17.90;99.90;;;;;;5127456;27;20050;-65
2023/08/25 04:57:22;;;;;;;32.05;26.88;;;17.90;99.90;;;;;;5126629;27;20473;-65
2023/08/25 04:59:47;;;;;;;37.28;29.38;;;17.90;99.90;;;;;;5134145;27;20035;-64
2023/08/25 05:02:15;;;;;;;35.97;31.00;;;17.90;99.90;;;;;;5102895;27;20076;-64
2023/08/25 05:04:41;;;;;;;34.70;29.13;;;17.90;99.90;;;;;;5119453;27;20047;-64
2023/08/25 05:07:07;;;;;;;34.70;30.80;;;17.90;99.90;;;;;;5135342;27;20046;-62
2023/08/25 05:09:32;;;;;;;39.05;31.70;;;17.90;99.90;;;;;;5154571;27;20035;-63
2023/08/25 05:11:58;;;;;;;36.53;29.30;;;17.90;99.90;;;;;;5106227;27;20082;-63
2023/08/25 05:14:24;;;;;;;31.35;27.48;;;18.00;99.90;;;;;;5116163;27;20039;-63
2023/08/25 05:16:49;;;;;;;31.10;27.65;;;18.00;99.90;;;;;;5115800;27;20039;-64
2023/08/25 05:19:15;;;;;;;33.60;29.48;;;18.00;99.90;;;;;;5134100;27;20050;-64
2023/08/25 05:21:41;;;;;;;36.70;31.48;;;18.10;99.90;;;;;;5115946;27;20077;-64
2023/08/25 05:24:20;;;;;;;37.20;30.98;;;18.10;99.90;;;;;;5115738;27;20039;-63
2023/08/25 05:26:47;;;;;;;34.72;30.17;;;18.10;99.90;;;;;;5115881;27;20087;-63
2023/08/25 05:29:14;;;;;;;40.67;32.70;;;18.20;99.90;;;;;;5135184;27;20109;-63
2023/08/25 05:31:40;;;;;;;39.58;33.58;;;18.20;99.90;;;;;;5135981;27;20043;-63
2023/08/25 05:34:06;;;;;;;40.78;32.72;;;18.20;99.90;;;;;;5135941;27;20480;-64
2023/08/25 05:36:31;;;;;;;40.80;33.90;;;18.20;99.90;;;;;;5136059;27;20039;-65
2023/08/25 05:38:57;;;;;;;49.17;36.78;;;18.30;99.90;;;;;;5154177;27;20038;-62
2023/08/25 05:41:23;;;;;;;44.30;34.13;;;18.30;99.90;;;;;;5136296;27;20031;-64
2023/08/25 05:43:48;;;;;;;45.67;36.00;;;18.30;99.90;;;;;;5154420;27;20084;-64
2023/08/25 05:46:14;;;;;;;52.88;36.60;;;18.40;99.90;;;;;;5154471;27;20038;-63
2023/08/25 05:48:40;;;;;;;47.50;35.42;;;18.40;99.90;;;;;;5135830;27;20047;-63
2023/08/25 05:51:05;;;;;;;49.30;36.92;;;18.40;99.90;;;;;;5135319;27;20048;-63
2023/08/25 05:53:31;;;;;;;57.97;40.13;;;18.50;99.90;;;;;;5135423;27;20065;-63
2023/08/25 05:55:57;;;;;;;52.63;38.30;;;18.50;99.90;;;;;;5135621;27;20053;-63
2023/08/25 05:58:23;;;;;;;48.38;37.25;;;18.50;99.90;;;;;;5135547;27;20038;-64
2023/08/25 06:00:49;;;;;;;59.03;40.45;;;18.60;99.90;;;;;;5153715;27;20049;-62
2023/08/25 06:03:16;;;;;;;56.22;39.95;;;18.50;99.90;;;;;;5134679;27;20039;-64
2023/08/25 06:05:42;;;;;;;49.80;37.75;;;18.60;99.90;;;;;;5132719;27;20107;-63
2023/08/25 06:08:08;;;;;;;57.95;41.30;;;18.60;99.90;;;;;;5153047;27;20034;-64
2023/08/25 06:10:35;;;;;;;68.13;44.10;;;18.60;99.90;;;;;;5154056;27;20026;-64
2023/08/25 06:13:00;;;;;;;51.78;38.55;;;18.70;99.90;;;;;;5153771;27;20039;-63
2023/08/25 06:15:26;;;;;;;55.13;39.63;;;18.70;99.90;;;;;;5135268;27;20039;-64
2023/08/25 06:17:52;;;;;;;56.92;39.75;;;18.70;99.90;;;;;;5135277;27;20512;-64
2023/08/25 06:20:17;;;;;;;51.38;38.95;;;18.70;99.90;;;;;;5135369;27;20034;-63
2023/08/25 06:22:43;;;;;;;52.33;40.35;;;18.80;99.90;;;;;;5135089;27;20042;-63
2023/08/25 06:25:09;;;;;;;51.03;38.92;;;18.90;99.90;;;;;;5153526;27;20039;-63
2023/08/25 06:27:36;;;;;;;54.70;40.47;;;18.90;99.90;;;;;;5135018;27;20126;-63
2023/08/25 06:30:02;;;;;;;54.10;39.22;;;18.90;99.90;;;;;;5153482;27;20454;-64
2023/08/25 06:32:28;;;;;;;52.92;40.85;;;19.00;99.90;;;;;;5134916;27;20460;-63
2023/08/25 06:34:54;;;;;;;51.35;38.60;;;19.00;99.90;;;;;;5134622;27;20072;-62
2023/08/25 06:37:20;;;;;;;50.28;38.38;;;19.00;99.90;;;;;;5117506;27;20031;-64
2023/08/25 06:39:47;;;;;;;51.47;39.63;;;19.00;99.90;;;;;;5134880;27;20042;-62
2023/08/25 06:42:13;;;;;;;52.25;39.55;;;19.10;99.90;;;;;;5134517;27;20110;-64
2023/08/25 06:44:40;;;;;;;54.53;38.83;;;19.10;99.90;;;;;;5153321;27;20152;-64
2023/08/25 06:47:06;;;;;;;50.92;39.35;;;19.10;99.90;;;;;;5134533;27;20038;-64
2023/08/25 06:49:31;;;;;;;51.95;39.50;;;19.10;99.90;;;;;;5134389;27;20500;-64
2023/08/25 06:51:57;;;;;;;57.58;40.97;;;19.10;99.90;;;;;;5134436;27;20042;-63
2023/08/25 06:54:24;;;;;;;48.80;37.97;;;19.10;99.90;;;;;;5134953;27;20038;-66
2023/08/25 06:56:50;;;;;;;50.65;38.65;;;19.10;99.90;;;;;;5134487;27;20447;-64
2023/08/25 06:59:16;;;;;;;54.38;39.55;;;19.10;99.90;;;;;;5114766;27;20441;-63
2023/08/25 07:01:43;;;;;;;49.85;37.92;;;19.10;99.90;;;;;;5114053;27;20038;-64
2023/08/25 07:04:08;;;;;;;51.75;39.05;;;19.10;99.90;;;;;;5131672;27;20042;-64
2023/08/25 07:06:36;;;;;;;49.38;37.33;;;19.10;99.90;;;;;;5134118;27;20458;-64
2023/08/25 07:09:02;;;;;;;49.00;37.17;;;19.20;99.90;;;;;;5134087;27;20074;-63
2023/08/25 07:11:28;;;;;;;45.42;36.75;;;19.30;99.90;;;;;;5134077;27;20039;-63
2023/08/25 07:13:54;;;;;;;45.67;35.92;;;19.30;99.90;;;;;;5133987;27;20045;-64
2023/08/25 07:16:20;;;;;;;44.97;37.05;;;19.30;99.90;;;;;;5152474;27;20109;-62
2023/08/25 07:18:45;;;;;;;49.83;37.90;;;19.30;99.90;;;;;;5116416;27;20126;-65
2023/08/25 07:21:11;;;;;;;50.03;38.83;;;19.30;99.90;;;;;;5152444;27;20083;-64
2023/08/25 07:23:37;;;;;;;44.90;36.60;;;19.40;99.90;;;;;;5152372;27;20034;-64
2023/08/25 07:26:03;;;;;;;44.58;37.78;;;19.50;99.90;;;;;;5134206;27;20396;-63
2023/08/25 07:28:29;;;;;;;45.95;37.25;;;19.60;99.90;;;;;;5133994;27;20126;-62
2023/08/25 07:30:56;;;;;;;43.75;36.13;;;19.70;99.90;;;;;;5134043;27;20074;-64
2023/08/25 07:33:22;;;;;;;41.45;34.88;;;19.80;99.90;;;;;;5133305;27;20035;-63
2023/08/25 07:35:48;;;;;;;41.60;35.10;;;19.80;99.90;;;;;;5133750;27;20047;-63
2023/08/25 07:38:14;;;;;;;38.20;32.22;;;19.90;99.90;;;;;;5133905;27;20068;-64
2023/08/25 07:40:39;;;;;;;41.42;34.08;;;20.00;99.90;;;;;;5152356;27;20034;-63
2023/08/25 07:43:06;;;;;;;38.13;33.05;;;20.10;99.90;;;;;;5133994;27;20035;-64
2023/08/25 07:45:32;;;;;;;37.55;32.28;;;20.30;99.90;;;;;;5152107;27;20031;-63
2023/08/25 07:47:59;;;;;;;42.35;30.60;;;20.50;99.90;;;;;;5133768;27;20396;-65
2023/08/25 07:50:30;;;;;;;31.85;27.83;;;20.60;99.90;;;;;;5152160;27;20034;-64
2023/08/25 07:52:55;;;;;;;32.80;28.23;;;20.70;99.90;;;;;;5152064;27;20516;-63
2023/08/25 07:55:21;;;;;;;32.13;28.20;;;20.80;99.90;;;;;;5133427;27;20103;-64
2023/08/25 07:57:47;;;;;;;31.88;27.33;;;20.90;99.90;;;;;;5119894;27;20031;-64
2023/08/25 08:00:15;;;;;;;28.27;25.27;;;21.00;99.90;;;;;;5131548;27;20488;-63
2023/08/25 08:02:46;;;;;;;26.60;23.75;;;21.10;99.90;;;;;;5112631;27;20169;-65
2023/08/25 08:05:12;;;;;;;27.20;24.38;;;21.10;99.90;;;;;;5131424;27;20549;-64
2023/08/25 08:07:38;;;;;;;26.38;23.65;;;21.10;99.90;;;;;;5112925;27;20035;-63
2023/08/25 08:10:05;;;;;;;26.73;23.08;;;21.00;99.90;;;;;;5145363;27;20027;-64
2023/08/25 08:12:31;;;;;;;27.00;23.55;;;21.00;99.90;;;;;;5133445;27;20454;-62
2023/08/25 08:14:57;;;;;;;27.52;23.80;;;20.90;99.90;;;;;;5151907;27;20099;-63
2023/08/25 08:17:23;;;;;;;27.23;24.30;;;20.90;99.90;;;;;;5151750;27;20046;-64
2023/08/25 08:19:48;;;;;;;25.98;22.95;;;20.90;99.90;;;;;;5133632;27;20071;-63
2023/08/25 08:22:14;;;;;;;26.45;22.30;;;20.80;99.90;;;;;;5152009;27;20037;-63
2023/08/25 08:24:45;;;;;;;25.55;22.85;;;20.80;99.90;;;;;;5133715;27;20038;-63
2023/08/25 08:27:12;;;;;;;27.07;24.23;;;20.80;99.90;;;;;;5137543;27;20046;-64
2023/08/25 08:29:38;;;;;;;28.17;23.92;;;20.70;99.90;;;;;;5155558;27;20064;-63
2023/08/25 08:32:05;;;;;;;24.95;22.38;;;20.70;99.90;;;;;;5137243;27;20046;-65
2023/08/25 08:34:31;;;;;;;25.55;22.75;;;20.70;99.90;;;;;;5128599;27;20042;-64
2023/08/25 08:36:58;;;;;;;26.02;22.73;;;20.70;99.90;;;;;;5118187;27;20087;-64
2023/08/25 08:39:24;;;;;;;26.38;23.45;;;20.70;99.90;;;;;;5122036;27;20058;-64
2023/08/25 08:41:52;;;;;;;28.70;24.05;;;20.70;99.90;;;;;;5136904;27;20432;-64
2023/08/25 08:44:18;;;;;;;27.15;23.15;;;20.70;99.90;;;;;;5136758;27;20438;-64
2023/08/25 08:46:47;;;;;;;25.23;22.60;;;20.70;99.90;;;;;;5126952;27;20095;-65
2023/08/25 08:49:12;;;;;;;24.58;21.30;;;20.70;99.90;;;;;;5116634;27;20496;-63
2023/08/25 08:51:40;;;;;;;23.00;20.42;;;20.70;99.90;;;;;;5148613;27;20035;-64
2023/08/25 08:54:07;;;;;;;26.05;21.55;;;20.70;99.90;;;;;;5118690;27;20181;-65
2023/08/25 08:56:34;;;;;;;24.30;21.77;;;20.60;99.90;;;;;;5116227;27;20043;-64
2023/08/25 08:59:00;;;;;;;25.88;23.17;;;20.60;99.90;;;;;;5116271;27;20787;-64
2023/08/25 09:01:27;;;;;;;24.65;22.05;;;20.70;99.90;;;;;;5115797;27;20069;-65
2023/08/25 09:03:56;;;;;;;27.35;22.75;;;20.70;99.90;;;;;;5116704;27;20050;-65
2023/08/25 09:06:21;;;;;;;26.73;23.15;;;20.70;99.90;;;;;;5116026;27;20107;-63
2023/08/25 09:08:50;;;;;;;25.27;22.60;;;20.80;99.90;;;;;;5134079;27;20039;-65
2023/08/25 09:11:16;;;;;;;24.58;21.02;;;20.80;99.90;;;;;;5134380;27;20109;-64
2023/08/25 09:13:54;;;;;;;23.05;20.25;;;20.80;99.90;;;;;;5140340;27;20095;-64
2023/08/25 09:16:22;;;;;;;22.48;20.08;;;20.70;99.90;;;;;;5151526;27;20031;-66
2023/08/25 09:18:48;;;;;;;22.95;19.85;;;20.70;99.90;;;;;;5134016;27;20054;-64
2023/08/25 09:21:16;;;;;;;22.88;20.13;;;20.70;99.90;;;;;;5115897;27;20043;-64
2023/08/25 09:23:52;;;;;;;23.08;18.38;;;20.70;99.90;;;;;;5133985;27;20072;-64
2023/08/25 09:26:18;;;;;;;25.55;20.33;;;20.80;99.90;;;;;;5135263;27;20054;-64
2023/08/25 09:28:44;;;;;;;22.55;19.60;;;20.80;99.90;;;;;;5136153;27;20038;-65
2023/08/25 09:31:23;;;;;;;26.02;20.33;;;20.80;99.90;;;;;;5134787;27;20038;-64
2023/08/25 09:34:02;;;;;;;21.85;19.60;;;20.80;99.90;;;;;;5147042;27;20043;-64
2023/08/25 09:36:28;;;;;;;23.60;20.15;;;20.70;99.90;;;;;;5114938;27;20035;-66
2023/08/25 09:38:54;;;;;;;22.33;18.92;;;20.70;99.90;;;;;;5117980;27;20062;-64
2023/08/25 09:41:24;;;;;;;23.80;18.63;;;20.80;99.90;;;;;;5134283;27;20035;-65
2023/08/25 09:44:00;;;;;;;25.27;20.65;;;20.80;99.90;;;;;;5135275;27;20535;-64
2023/08/25 09:46:33;;;;;;;20.13;18.00;;;20.80;99.90;;;;;;5135117;27;20049;-65
2023/08/25 09:49:07;;;;;;;20.30;18.13;;;20.90;99.90;;;;;;5131607;27;20039;-65
2023/08/25 09:51:37;;;;;;;18.23;16.33;;;20.90;99.90;;;;;;5115018;27;20070;-65
2023/08/25 09:54:08;;;;;;;22.63;18.55;;;21.00;99.90;;;;;;5126797;27;20047;-64
2023/08/25 09:56:34;;;;;;;19.65;17.52;;;21.00;99.90;;;;;;5135098;27;20443;-65
2023/08/25 09:59:02;;;;;;;22.40;17.30;;;21.10;99.90;;;;;;5117189;27;20085;-63
2023/08/25 10:01:27;;;;;;;21.80;17.15;;;21.10;99.90;;;;;;5114587;27;20459;-67
2023/08/25 10:03:54;;;;;;;21.33;15.93;;;21.10;99.90;;;;;;5133279;27;20039;-66
2023/08/25 10:06:21;;;;;;;19.50;16.83;;;21.20;99.90;;;;;;5114665;27;20050;-65
2023/08/25 10:08:48;;;;;;;21.05;17.85;;;21.10;99.90;;;;;;5134345;27;20107;-64
2023/08/25 10:11:19;;;;;;;21.70;19.48;;;21.20;99.90;;;;;;5117790;27;20501;-64
2023/08/25 10:13:50;;;;;;;22.25;18.92;;;21.10;99.90;;;;;;5114421;27;20658;-64
2023/08/25 10:16:17;;;;;;;21.65;18.10;;;21.10;99.90;;;;;;5134202;27;20532;-65
2023/08/25 10:18:45;;;;;;;22.85;18.88;;;21.20;99.90;;;;;;5153016;27;20126;-65
2023/08/25 10:21:13;;;;;;;19.65;17.30;;;21.30;99.90;;;;;;5153314;27;20046;-64
2023/08/25 10:23:40;;;;;;;20.08;17.98;;;21.50;99.90;;;;;;5134961;27;20038;-64
2023/08/25 10:26:06;;;;;;;21.65;17.75;;;21.70;99.90;;;;;;5132334;27;20078;-66
2023/08/25 10:28:34;;;;;;;20.20;18.08;;;21.80;99.90;;;;;;5133176;27;20088;-65
2023/08/25 10:31:00;;;;;;;20.83;18.58;;;21.90;99.90;;;;;;5134836;27;20481;-65
2023/08/25 10:33:25;;;;;;;23.90;18.30;;;22.00;99.90;;;;;;5134308;27;20091;-64
2023/08/25 10:35:54;;;;;;;21.10;17.88;;;21.90;99.90;;;;;;5134610;27;20405;-64
2023/08/25 10:38:19;;;;;;;20.63;16.77;;;21.90;99.90;;;;;;5133877;27;20067;-64
2023/08/25 10:40:56;;;;;;;17.95;16.05;;;21.90;99.90;;;;;;5134769;27;20125;-64
2023/08/25 10:43:25;;;;;;;19.50;17.20;;;21.80;99.90;;;;;;5125389;27;20043;-65
2023/08/25 10:45:52;;;;;;;19.77;16.85;;;21.80;99.90;;;;;;5130758;27;20043;-63
2023/08/25 10:48:21;;;;;;;22.67;18.70;;;21.90;99.90;;;;;;5124720;27;20047;-62
2023/08/25 10:50:47;;;;;;;20.10;17.63;;;21.90;99.90;;;;;;5132591;27;20035;-62
2023/08/25 10:53:58;;;;;;;19.80;17.38;;;22.00;99.90;;;;;;5110982;28;20070;-62
2023/08/25 10:56:25;;;;;;;21.05;18.20;;;22.20;99.90;;;;;;5123313;27;20038;-62
2023/08/25 10:59:11;;;;;;;19.40;17.25;;;22.40;99.90;;;;;;5111583;28;20044;-62
2023/08/25 11:01:37;;;;;;;21.27;18.63;;;22.50;99.90;;;;;;5122522;27;20572;-61
2023/08/25 11:04:08;;;;;;;17.80;15.55;;;22.50;99.90;;;;;;5121974;27;20039;-61
2023/08/25 11:06:39;;;;;;;17.60;15.90;;;22.60;99.90;;;;;;5118031;27;20039;-61
2023/08/25 11:09:05;;;;;;;19.10;16.38;;;22.60;99.90;;;;;;5131377;27;20088;-61
2023/08/25 11:11:35;;;;;;;18.63;16.00;;;22.60;99.90;;;;;;5131466;27;20031;-61
2023/08/25 11:14:00;;;;;;;20.02;16.33;;;22.60;99.90;;;;;;5119946;27;20052;-62
2023/08/25 11:16:26;;;;;;;17.52;15.63;;;22.50;99.90;;;;;;5110828;28;20118;-62
2023/08/25 11:18:52;;;;;;;21.45;16.95;;;22.50;99.90;;;;;;5111127;28;20046;-61
2023/08/25 11:21:25;;;;;;;18.08;15.00;;;22.40;99.90;;;;;;5109634;28;20035;-62
2023/08/25 11:23:52;;;;;;;16.40;13.73;;;22.40;99.90;;;;;;5111642;27;20043;-61
2023/08/25 11:26:18;;;;;;;15.63;13.30;;;22.40;99.90;;;;;;5112128;27;20110;-62
2023/08/25 11:28:50;;;;;;;17.33;14.07;;;22.40;99.90;;;;;;5111545;27;20069;-62
2023/08/25 11:31:16;;;;;;;;;;;22.30;99.90;;;;;;5111595;28;20035;-62
2023/08/25 11:33:44;;;;;;;17.02;14.75;;;22.20;99.90;;;;;;5111041;28;19927;-62
2023/08/25 11:36:15;;;;;;;18.10;14.75;;;22.20;99.90;;;;;;5115725;27;20072;-62
2023/08/25 11:38:41;;;;;;;17.63;15.43;;;22.10;99.90;;;;;;5131260;27;20396;-61
2023/08/25 11:41:07;;;;;;;19.38;14.90;;;22.20;99.90;;;;;;5131474;27;20035;-62
2023/08/25 11:43:32;;;;;;;19.23;14.68;;;22.20;99.90;;;;;;5129629;27;20165;-61
2023/08/25 11:45:59;;;;;;;16.63;14.43;;;22.10;99.90;;;;;;5121696;27;20047;-62
2023/08/25 11:48:25;;;;;;;18.02;14.05;;;22.10;99.90;;;;;;5119282;27;20035;-62
2023/08/25 11:50:51;;;;;;;18.05;14.35;;;22.10;99.90;;;;;;5109981;28;20058;-62
2023/08/25 11:53:17;;;;;;;15.35;13.75;;;22.00;99.90;;;;;;5120486;27;20039;-62
2023/08/25 11:56:02;;;;;;;13.88;12.43;;;22.00;99.90;;;;;;5131219;27;20057;-62
2023/08/25 11:58:32;;;;;;;13.65;10.30;;;21.90;99.90;;;;;;5131184;27;20556;-62
2023/08/25 12:01:06;;;;;;;13.88;10.45;;;21.90;99.90;;;;;;5141839;27;20042;-61
2023/08/25 12:03:32;;;;;;;15.10;10.90;;;21.90;99.90;;;;;;5151738;27;20038;-62
2023/08/25 12:05:59;;;;;;;15.23;10.73;;;21.80;99.90;;;;;;5128820;27;20084;-62
2023/08/25 12:08:25;;;;;;;12.20;10.65;;;21.90;99.90;;;;;;5112648;27;20058;-62
2023/08/25 12:10:54;;;;;;;11.93;10.02;;;21.90;99.90;;;;;;5121822;27;20043;-61
2023/08/25 12:13:30;;;;;;;12.40;9.77;;;21.90;99.90;;;;;;5151816;27;20045;-62
2023/08/25 12:15:57;;;;;;;11.20;8.10;;;21.90;99.90;;;;;;5133395;27;20435;-62
2023/08/25 12:18:23;;;;;;;7.60;6.00;;;21.90;99.90;;;;;;5138226;27;20041;-61
2023/08/25 12:20:50;;;;;;;8.15;5.82;;;21.90;99.90;;;;;;5130823;27;20027;-62
2023/08/25 12:23:16;;;;;;;8.38;5.57;;;21.90;99.90;;;;;;5135288;27;20118;-62
2023/08/25 12:25:43;;;;;;;7.85;5.35;;;21.90;99.90;;;;;;5130936;27;20079;-63
2023/08/25 12:28:10;;;;;;;11.98;6.07;;;21.90;99.90;;;;;;5117659;27;20049;-63